createdAt,value
2018-12-03T00:01:50.852Z,12.20
2018-12-03T00:04:19.540Z,12.20
2018-12-03T00:09:15.651Z,12.20
2018-12-03T00:14:11.760Z,12.20
2018-12-03T00:19:08.121Z,12.10
2018-12-03T00:21:36.237Z,12.10
2018-12-03T00:24:05.159Z,12.10
2018-12-03T00:26:33.275Z,12.10
2018-12-03T00:29:01.448Z,12.10
2018-12-03T00:31:29.529Z,12.10
2018-12-03T00:33:57.679Z,12.10
2018-12-03T00:36:25.806Z,12.10
2018-12-03T00:38:53.923Z,12.10
2018-12-03T00:41:22.077Z,12.10
2018-12-03T00:43:50.195Z,12.10
2018-12-03T00:46:18.356Z,12.20
2018-12-03T00:56:10.247Z,12.50
2018-12-03T01:01:06.299Z,12.40
2018-12-03T01:03:34.441Z,12.40
2018-12-03T01:08:30.468Z,12.40
2018-12-03T01:10:58.647Z,12.50
2018-12-03T01:13:26.766Z,12.40
2018-12-03T01:15:54.907Z,12.50
2018-12-03T01:20:50.940Z,12.50
2018-12-03T01:23:19.056Z,12.40
2018-12-03T01:25:47.205Z,12.40
2018-12-03T01:30:43.220Z,12.30
2018-12-03T01:33:11.363Z,12.20
2018-12-03T01:43:03.175Z,12.30
2018-12-03T01:50:27.184Z,12.20
2018-12-03T01:52:55.312Z,12.30
2018-12-03T01:55:23.449Z,12.20
2018-12-03T01:57:51.600Z,12.20
2018-12-03T02:00:19.998Z,12.20
2018-12-03T02:02:48.152Z,12.20
2018-12-03T02:07:44.160Z,12.10
2018-12-03T02:10:13.175Z,12.10
2018-12-03T02:15:11.459Z,12.10
2018-12-03T02:20:10.244Z,12.00
2018-12-03T02:22:38.403Z,12.00
2018-12-03T02:25:07.612Z,12.00
2018-12-03T02:27:35.812Z,12.00
2018-12-03T02:30:11.994Z,11.90
2018-12-03T02:32:40.367Z,11.90
2018-12-03T02:35:09.608Z,11.90
2018-12-03T02:42:35.143Z,11.90
2018-12-03T02:45:03.267Z,11.90
2018-12-03T02:47:31.389Z,11.80
2018-12-03T02:54:55.301Z,11.70
2018-12-03T02:57:23.380Z,11.70
2018-12-03T03:02:19.359Z,11.90
2018-12-03T03:12:11.223Z,11.90
2018-12-03T03:17:07.192Z,12.00
2018-12-03T03:22:03.172Z,12.10
2018-12-03T03:24:31.306Z,12.10
2018-12-03T03:29:27.319Z,12.20
2018-12-03T03:31:55.448Z,12.30
2018-12-03T03:34:23.541Z,12.20
2018-12-03T03:49:11.071Z,12.20
2018-12-03T03:51:39.164Z,12.20
2018-12-03T03:54:07.260Z,12.20
2018-12-03T03:56:35.410Z,12.10
2018-12-03T03:59:03.456Z,12.10
2018-12-03T04:01:31.552Z,12.10
2018-12-03T04:03:59.703Z,12.00
2018-12-03T04:08:55.688Z,11.90
2018-12-03T04:11:23.789Z,11.90
2018-12-03T04:21:15.620Z,11.90
2018-12-03T04:23:43.884Z,11.90
2018-12-03T04:26:11.979Z,11.90
2018-12-03T04:28:40.081Z,11.90
2018-12-03T04:31:08.176Z,11.90
2018-12-03T04:36:04.134Z,11.90
2018-12-03T04:41:00.095Z,11.90
2018-12-03T04:43:28.202Z,11.80
2018-12-03T04:45:56.296Z,11.80
2018-12-03T04:48:24.400Z,11.90
2018-12-03T04:50:52.501Z,11.90
2018-12-03T04:53:20.601Z,12.10
2018-12-03T04:55:48.772Z,12.00
2018-12-03T04:58:16.873Z,12.10
2018-12-03T05:03:12.868Z,12.30
2018-12-03T05:05:40.972Z,12.30
2018-12-03T05:10:36.980Z,12.20
2018-12-03T05:13:05.234Z,12.10
2018-12-03T05:15:33.338Z,12.00
2018-12-03T05:18:01.516Z,11.90
2018-12-03T05:20:29.659Z,11.90
2018-12-03T05:22:57.773Z,11.80
2018-12-03T05:25:25.932Z,11.70
2018-12-03T05:27:54.077Z,11.70
2018-12-03T05:30:22.192Z,11.60
2018-12-03T05:32:50.320Z,11.60
2018-12-03T05:35:20.180Z,11.50
2018-12-03T05:37:48.343Z,11.50
2018-12-03T05:42:46.211Z,11.50
2018-12-03T05:45:14.347Z,11.40
2018-12-03T05:47:42.493Z,11.40
2018-12-03T05:50:13.527Z,11.40
2018-12-03T05:52:41.866Z,11.30
2018-12-03T05:55:11.242Z,11.20
2018-12-03T05:57:39.388Z,11.20
2018-12-03T06:00:17.325Z,11.20
2018-12-03T06:02:45.476Z,11.20
2018-12-03T06:07:41.736Z,11.20
2018-12-03T06:12:38.411Z,11.30
2018-12-03T06:20:05.162Z,11.50
2018-12-03T06:25:01.198Z,11.20
2018-12-03T06:27:29.316Z,11.20
2018-12-03T06:29:57.469Z,11.30
2018-12-03T06:39:50.088Z,11.60
2018-12-03T06:42:18.205Z,11.70
2018-12-03T06:44:46.344Z,11.80
2018-12-03T06:47:14.477Z,11.90
2018-12-03T06:49:42.618Z,11.90
2018-12-03T06:52:10.807Z,11.90
2018-12-03T06:54:38.910Z,11.90
2018-12-03T06:57:07.012Z,11.90
2018-12-03T07:02:02.985Z,11.90
2018-12-03T07:06:59.003Z,11.90
2018-12-03T07:11:54.993Z,11.90
2018-12-03T07:14:23.096Z,11.90
2018-12-03T07:16:51.192Z,11.80
2018-12-03T07:21:47.169Z,11.70
2018-12-03T07:24:15.268Z,11.60
2018-12-03T07:26:43.374Z,11.60
2018-12-03T07:29:11.487Z,11.60
2018-12-03T07:31:40.289Z,11.50
2018-12-03T07:34:08.390Z,11.40
2018-12-03T07:36:36.484Z,11.40
2018-12-03T07:39:05.934Z,11.30
2018-12-03T07:41:34.033Z,11.30
2018-12-03T07:46:30.024Z,11.30
2018-12-03T07:51:26.004Z,11.30
2018-12-03T07:53:54.089Z,11.40
2018-12-03T07:58:50.068Z,11.40
2018-12-03T08:01:18.164Z,11.40
2018-12-03T08:21:04.989Z,11.30
2018-12-03T08:23:41.144Z,11.40
2018-12-03T08:26:10.144Z,11.50
2018-12-03T08:28:38.407Z,11.60
2018-12-03T08:33:34.444Z,11.70
2018-12-03T08:38:30.480Z,11.80
2018-12-03T08:40:58.616Z,11.90
2018-12-03T08:45:59.215Z,11.90
2018-12-03T08:48:31.996Z,11.90
2018-12-03T08:51:00.107Z,11.90
2018-12-03T08:53:28.244Z,11.90
2018-12-03T08:55:56.340Z,11.80
2018-12-03T08:58:24.471Z,11.80
2018-12-03T09:00:52.577Z,11.80
2018-12-03T09:03:25.550Z,11.80
2018-12-03T09:08:21.572Z,11.70
2018-12-03T09:20:49.345Z,11.50
2018-12-03T09:25:45.327Z,11.50
2018-12-03T09:28:13.424Z,11.40
2018-12-03T09:33:09.399Z,11.50
2018-12-03T09:43:01.312Z,11.70
2018-12-03T09:47:57.292Z,11.70
2018-12-03T09:50:27.772Z,11.80
2018-12-03T09:52:56.201Z,11.80
2018-12-03T09:55:26.309Z,11.80
2018-12-03T09:58:01.036Z,11.90
2018-12-03T10:02:58.815Z,12.00
2018-12-03T10:05:29.532Z,12.00
2018-12-03T10:10:25.566Z,12.00
2018-12-03T10:12:53.691Z,12.10
2018-12-03T10:15:26.964Z,12.10
2018-12-03T10:17:56.594Z,12.20
2018-12-03T10:20:24.944Z,12.20
2018-12-03T10:22:53.114Z,12.30
2018-12-03T10:25:21.241Z,12.40
2018-12-03T10:27:49.371Z,12.40
2018-12-03T10:30:19.736Z,12.40
2018-12-03T10:32:50.375Z,12.50
2018-12-03T10:35:18.562Z,12.50
2018-12-03T10:37:47.064Z,12.50
2018-12-03T10:40:20.683Z,12.50
2018-12-03T10:42:49.852Z,12.60
2018-12-03T10:45:25.965Z,12.60
2018-12-03T10:47:48.532Z,12.70
2018-12-03T10:50:22.193Z,12.70
2018-12-03T10:52:46.453Z,12.80
2018-12-03T10:55:14.629Z,12.80
2018-12-03T10:57:44.160Z,12.80
2018-12-03T11:00:22.000Z,12.90
2018-12-03T11:02:57.451Z,12.90
2018-12-03T11:08:03.628Z,13.10
2018-12-03T11:10:39.214Z,13.10
2018-12-03T11:18:04.263Z,13.30
2018-12-03T11:20:32.372Z,13.30
2018-12-03T11:23:00.484Z,13.30
2018-12-03T11:25:31.432Z,13.30
2018-12-03T11:28:01.058Z,13.30
2018-12-03T11:30:29.396Z,13.30
2018-12-03T11:32:57.500Z,13.30
2018-12-03T11:35:28.055Z,13.40
2018-12-03T11:38:04.199Z,13.60
2018-12-03T11:40:44.148Z,13.60
2018-12-03T11:45:40.108Z,13.60
2018-12-03T11:48:08.329Z,13.60
2018-12-03T11:50:36.440Z,13.60
2018-12-03T11:53:04.552Z,13.60
2018-12-03T11:55:32.647Z,13.60
2018-12-03T11:58:00.837Z,13.50
2018-12-03T12:00:28.936Z,13.40
2018-12-03T12:02:57.028Z,13.40
2018-12-03T12:05:25.128Z,13.40
2018-12-03T12:07:53.229Z,13.40
2018-12-03T12:10:21.378Z,13.40
2018-12-03T12:12:49.508Z,13.40
2018-12-03T12:15:17.683Z,13.50
2018-12-03T12:17:45.749Z,13.30
2018-12-03T12:20:13.876Z,13.30
2018-12-03T12:22:42.000Z,13.20
2018-12-03T12:25:11.684Z,13.20
2018-12-03T12:27:43.369Z,13.20
2018-12-03T12:30:13.276Z,13.20
2018-12-03T12:32:41.419Z,13.20
2018-12-03T12:35:09.940Z,13.20
2018-12-03T12:37:38.158Z,8.70
2018-12-03T12:40:08.956Z,13.00
2018-12-03T12:42:37.120Z,13.00
2018-12-03T12:45:09.841Z,13.00
2018-12-03T12:47:37.959Z,13.00
2018-12-03T12:50:09.612Z,13.00
2018-12-03T12:55:06.384Z,13.00
2018-12-03T12:57:34.541Z,13.00
2018-12-03T13:00:02.725Z,12.90
2018-12-03T13:02:30.864Z,12.80
2018-12-03T13:04:59.047Z,12.70
2018-12-03T13:07:27.141Z,12.70
2018-12-03T13:09:55.371Z,12.60
2018-12-03T13:14:51.444Z,12.50
2018-12-03T13:17:19.571Z,12.50
2018-12-03T13:19:47.683Z,12.40
2018-12-03T13:22:15.803Z,12.30
2018-12-03T13:24:43.932Z,12.40
2018-12-03T13:27:12.048Z,12.40
2018-12-03T13:29:40.217Z,12.30
2018-12-03T13:32:08.336Z,12.30
2018-12-03T13:34:36.464Z,12.30
2018-12-03T13:37:04.581Z,12.30
2018-12-03T13:39:32.782Z,12.30
2018-12-03T13:44:28.845Z,12.40
2018-12-03T13:46:56.986Z,12.40
2018-12-03T13:51:53.004Z,12.40
2018-12-03T13:54:21.135Z,12.30
2018-12-03T13:59:17.156Z,12.30
2018-12-03T14:01:45.289Z,12.30
2018-12-03T14:04:14.825Z,12.30
2018-12-03T14:07:07.305Z,12.30
2018-12-03T14:12:11.813Z,12.40
2018-12-03T14:16:55.569Z,12.40
2018-12-03T14:19:26.710Z,12.30
2018-12-03T14:22:37.108Z,12.30
2018-12-03T14:25:06.375Z,12.30
2018-12-03T14:32:30.362Z,12.30
2018-12-03T14:37:26.406Z,12.30
2018-12-03T14:39:54.491Z,12.20
2018-12-03T14:42:22.619Z,12.20
2018-12-03T14:44:50.737Z,12.20
2018-12-03T14:47:18.911Z,12.10
2018-12-03T14:49:47.048Z,12.10
2018-12-03T14:52:15.211Z,12.10
2018-12-03T14:54:43.323Z,12.00
2018-12-03T14:57:11.467Z,12.00
2018-12-03T14:59:39.576Z,12.00
2018-12-03T15:02:07.759Z,12.00
2018-12-03T15:04:35.869Z,11.90
2018-12-03T15:09:31.969Z,11.90
2018-12-03T15:12:00.096Z,11.80
2018-12-03T15:14:28.294Z,11.70
2018-12-03T15:16:56.416Z,11.80
2018-12-03T15:19:24.557Z,11.70
2018-12-03T15:21:52.803Z,11.70
2018-12-03T15:24:20.937Z,11.60
2018-12-03T15:26:49.061Z,11.70
2018-12-03T15:29:17.184Z,11.70
2018-12-03T15:31:45.304Z,11.70
2018-12-03T15:34:13.425Z,11.70
2018-12-03T15:36:42.509Z,11.70
2018-12-03T15:39:09.919Z,11.70
2018-12-03T15:41:38.095Z,11.70
2018-12-03T15:44:06.243Z,11.80
2018-12-03T15:46:34.406Z,11.90
2018-12-03T15:49:02.536Z,11.80
2018-12-03T15:51:30.677Z,11.80
2018-12-03T15:53:58.803Z,11.70
2018-12-03T15:56:26.923Z,11.70
2018-12-03T15:58:56.131Z,11.70
2018-12-03T16:01:24.348Z,11.70
2018-12-03T16:03:52.434Z,11.70
2018-12-03T16:06:20.648Z,11.70
2018-12-03T16:08:48.820Z,11.70
2018-12-03T16:11:16.919Z,11.70
2018-12-03T16:13:45.012Z,11.70
2018-12-03T16:16:13.125Z,11.70
2018-12-03T16:21:09.134Z,11.60
2018-12-03T16:26:05.279Z,11.60
2018-12-03T16:28:33.416Z,11.60
2018-12-03T16:43:21.417Z,11.40
2018-12-03T16:50:45.276Z,11.50
2018-12-03T16:58:09.145Z,11.60
2018-12-03T17:00:37.358Z,11.60
2018-12-03T17:03:05.419Z,11.50
2018-12-03T17:05:33.532Z,11.60
2018-12-03T17:08:03.733Z,11.50
2018-12-03T17:10:31.852Z,11.50
2018-12-03T17:12:59.984Z,11.50
2018-12-03T17:15:28.301Z,11.40
2018-12-03T17:17:56.442Z,11.40
2018-12-03T17:20:29.507Z,11.40
2018-12-03T17:23:09.768Z,11.40
2018-12-03T17:28:07.858Z,11.40
2018-12-03T17:30:35.961Z,11.50
2018-12-03T17:33:04.073Z,11.40
2018-12-03T17:38:06.716Z,11.30
2018-12-03T17:40:34.844Z,11.20
2018-12-03T17:43:10.605Z,11.20
2018-12-03T17:45:38.692Z,11.10
2018-12-03T17:48:06.836Z,11.10
2018-12-03T17:50:34.956Z,11.10
2018-12-03T17:53:03.049Z,11.20
2018-12-03T17:55:31.242Z,11.20
2018-12-03T17:57:59.383Z,11.30
2018-12-03T18:00:27.640Z,11.30
2018-12-03T18:02:55.731Z,11.30
2018-12-03T18:05:23.827Z,11.40
2018-12-03T18:07:51.924Z,11.40
2018-12-03T18:10:20.049Z,11.40
2018-12-03T18:17:44.020Z,11.50
2018-12-03T18:20:12.121Z,11.50
2018-12-03T18:22:40.258Z,11.50
2018-12-03T18:25:08.341Z,11.40
2018-12-03T18:27:36.436Z,11.50
2018-12-03T18:30:06.557Z,11.50
2018-12-03T18:35:02.803Z,11.50
2018-12-03T18:37:32.163Z,11.50
2018-12-03T18:40:00.528Z,11.50
2018-12-03T18:42:28.901Z,11.40
2018-12-03T18:44:57.241Z,11.30
2018-12-03T18:47:25.626Z,11.30
2018-12-03T18:49:57.211Z,11.20
2018-12-03T18:52:25.664Z,11.10
2018-12-03T18:54:54.045Z,11.00
2018-12-03T18:57:23.513Z,11.00
2018-12-03T18:59:52.020Z,11.00
2018-12-03T19:04:48.476Z,11.00
2018-12-03T19:07:16.862Z,11.00
2018-12-03T19:09:45.249Z,11.00
2018-12-03T19:12:13.782Z,11.00
2018-12-03T19:14:42.247Z,11.00
2018-12-03T19:17:10.691Z,11.00
2018-12-03T19:19:39.174Z,11.00
2018-12-03T19:22:07.593Z,11.00
2018-12-03T19:24:36.034Z,11.00
2018-12-03T19:27:04.539Z,11.00
2018-12-03T19:29:38.643Z,11.00
2018-12-03T19:32:01.367Z,11.00
2018-12-03T19:34:29.791Z,10.90
2018-12-03T19:39:26.400Z,10.90
2018-12-03T19:41:54.846Z,10.80
2018-12-03T19:44:23.216Z,10.90
2018-12-03T19:46:51.641Z,10.90
2018-12-03T19:49:20.016Z,11.00
2018-12-03T19:51:48.427Z,11.00
2018-12-03T19:54:17.958Z,11.00
2018-12-03T19:56:46.371Z,11.00
2018-12-03T20:01:46.007Z,10.90
2018-12-03T20:04:25.600Z,10.90
2018-12-03T20:09:22.155Z,10.90
2018-12-03T20:11:50.546Z,10.90
2018-12-03T20:14:18.974Z,11.00
2018-12-03T20:16:47.392Z,11.10
2018-12-03T20:19:15.769Z,11.10
2018-12-03T20:21:45.602Z,11.10
2018-12-03T20:24:15.882Z,11.10
2018-12-03T20:26:49.306Z,11.10
2018-12-03T20:29:25.784Z,11.10
2018-12-03T20:32:02.708Z,11.10
2018-12-03T20:34:37.489Z,11.10
2018-12-03T20:37:26.487Z,11.10
2018-12-03T20:40:07.659Z,11.10
2018-12-03T20:42:38.529Z,11.10
2018-12-03T20:45:16.893Z,11.00
2018-12-03T20:47:48.299Z,11.00
2018-12-03T20:50:30.738Z,11.00
2018-12-03T20:52:59.155Z,11.10
2018-12-03T20:55:35.071Z,11.10
2018-12-03T20:58:03.480Z,11.00
2018-12-03T21:00:32.138Z,11.10
2018-12-03T21:03:01.365Z,11.10
2018-12-03T21:05:29.775Z,11.10
2018-12-03T21:10:26.301Z,11.10
2018-12-03T21:12:54.790Z,11.20
2018-12-03T21:15:23.201Z,11.30
2018-12-03T21:17:52.215Z,11.40
2018-12-03T21:20:42.043Z,11.40
2018-12-03T21:23:10.692Z,11.40
2018-12-03T21:25:39.077Z,11.40
2018-12-03T21:28:07.445Z,11.50
2018-12-03T21:30:35.943Z,11.40
2018-12-03T21:33:04.385Z,11.40
2018-12-03T21:35:32.888Z,11.40
2018-12-03T21:38:01.331Z,11.50
2018-12-03T21:45:26.055Z,11.60
2018-12-03T21:47:54.525Z,11.60
2018-12-03T21:50:22.935Z,11.50
2018-12-03T21:52:51.452Z,11.50
2018-12-03T21:55:19.821Z,11.50
2018-12-03T21:57:48.230Z,11.50
2018-12-03T22:00:17.528Z,11.50
2018-12-03T22:05:14.097Z,11.50
2018-12-03T22:07:42.483Z,11.60
2018-12-03T22:10:10.842Z,11.50
2018-12-03T22:12:39.210Z,11.60
2018-12-03T22:15:08.269Z,11.60
2018-12-03T22:17:36.654Z,11.60
2018-12-03T22:20:08.193Z,11.60
2018-12-03T22:27:34.585Z,11.60
2018-12-03T22:32:31.216Z,11.70
2018-12-03T22:37:28.063Z,11.70
2018-12-03T22:42:24.658Z,11.80
2018-12-03T22:44:54.091Z,11.80
2018-12-03T22:47:21.499Z,11.80
2018-12-03T22:49:49.915Z,11.80
2018-12-03T22:52:18.405Z,11.80
2018-12-03T22:54:46.830Z,11.70
2018-12-03T22:57:15.204Z,11.70
2018-12-03T22:59:43.629Z,11.60
2018-12-03T23:04:40.297Z,11.30
2018-12-03T23:07:08.856Z,11.40
2018-12-03T23:09:37.256Z,11.40
2018-12-03T23:14:34.014Z,11.50
2018-12-03T23:17:02.373Z,11.60
2018-12-03T23:19:30.771Z,11.50
2018-12-03T23:24:27.391Z,11.50
2018-12-03T23:26:55.785Z,11.40
2018-12-03T23:29:24.258Z,11.40
2018-12-03T23:31:52.659Z,11.40
2018-12-03T23:34:21.029Z,11.40
2018-12-03T23:39:17.564Z,11.50
2018-12-03T23:44:14.025Z,11.60
2018-12-03T23:49:10.531Z,11.50
2018-12-03T23:51:38.883Z,11.60
2018-12-03T23:54:07.729Z,11.60
2018-12-03T23:56:36.181Z,11.50
2018-12-03T23:59:04.585Z,11.50
